createdAt,value
2018-12-06T00:00:12.189Z,81.62
2018-12-06T00:03:19.688Z,80.83
2018-12-06T00:06:27.185Z,80.48
2018-12-06T00:09:34.677Z,80.62
2018-12-06T00:12:42.156Z,81.00
2018-12-06T00:16:00.072Z,81.75
2018-12-06T00:19:10.444Z,81.72
2018-12-06T00:22:17.960Z,81.82
2018-12-06T00:25:25.927Z,82.62
2018-12-06T00:28:43.449Z,84.54
2018-12-06T00:32:00.925Z,83.87
2018-12-06T00:35:18.342Z,84.46
2018-12-06T00:38:35.741Z,84.76
2018-12-06T00:41:53.205Z,85.03
2018-12-06T00:45:02.950Z,85.37
2018-12-06T00:48:10.717Z,84.51
2018-12-06T00:51:28.392Z,83.96
2018-12-06T00:54:45.646Z,84.34
2018-12-06T00:58:03.552Z,84.73
2018-12-06T01:01:11.877Z,84.45
2018-12-06T01:04:29.389Z,84.68
2018-12-06T01:07:46.800Z,84.38
2018-12-06T01:11:04.269Z,83.41
2018-12-06T01:14:23.775Z,83.99
2018-12-06T01:17:31.473Z,84.19
2018-12-06T01:20:38.928Z,83.75
2018-12-06T01:23:46.432Z,83.62
2018-12-06T01:27:06.941Z,83.78
2018-12-06T01:30:24.533Z,84.20
2018-12-06T01:33:41.989Z,84.42
2018-12-06T01:36:59.424Z,84.12
2018-12-06T01:40:16.896Z,83.78
2018-12-06T01:43:34.399Z,83.68
2018-12-06T01:46:42.097Z,84.62
2018-12-06T01:49:49.555Z,84.67
2018-12-06T01:52:57.046Z,84.16
2018-12-06T01:56:04.509Z,84.68
2018-12-06T01:59:12.005Z,84.09
2018-12-06T02:02:29.427Z,84.57
2018-12-06T02:05:46.799Z,84.57
2018-12-06T02:09:06.532Z,84.35
2018-12-06T02:12:14.664Z,84.55
2018-12-06T02:15:32.151Z,85.86
2018-12-06T02:18:49.623Z,85.25
2018-12-06T02:22:07.717Z,85.53
2018-12-06T02:28:30.924Z,86.36
2018-12-06T02:31:48.847Z,86.92
2018-12-06T02:35:07.188Z,87.21
2018-12-06T02:38:14.725Z,87.19
2018-12-06T02:41:22.410Z,86.47
2018-12-06T02:44:30.354Z,87.62
2018-12-06T02:47:38.333Z,87.99
2018-12-06T02:50:55.795Z,87.75
2018-12-06T02:54:13.186Z,87.51
2018-12-06T02:57:30.569Z,88.05
2018-12-06T03:00:48.069Z,89.13
2018-12-06T03:03:55.797Z,88.80
2018-12-06T03:07:03.264Z,88.58
2018-12-06T03:10:10.766Z,88.90
2018-12-06T03:13:18.221Z,89.09
2018-12-06T03:16:25.709Z,89.33
2018-12-06T03:19:33.720Z,88.72
2018-12-06T03:22:41.197Z,88.92
2018-12-06T03:25:48.778Z,89.26
2018-12-06T03:29:06.294Z,89.39
2018-12-06T03:32:23.693Z,89.36
2018-12-06T03:35:41.093Z,89.14
2018-12-06T03:38:58.532Z,89.22
2018-12-06T03:42:16.995Z,88.79
2018-12-06T03:45:34.917Z,88.09
2018-12-06T03:48:52.381Z,88.54
2018-12-06T03:52:09.782Z,89.83
2018-12-06T03:55:27.217Z,89.98
2018-12-06T03:58:44.657Z,90.22
2018-12-06T04:02:02.076Z,90.22
2018-12-06T04:05:19.557Z,90.91
2018-12-06T04:08:36.933Z,90.48
2018-12-06T04:11:54.533Z,89.81
2018-12-06T04:15:11.847Z,89.47
2018-12-06T04:18:29.240Z,89.94
2018-12-06T04:21:37.040Z,89.94
2018-12-06T04:24:44.546Z,90.22
2018-12-06T04:27:52.033Z,90.65
2018-12-06T04:34:15.238Z,90.94
2018-12-06T04:37:32.707Z,90.55
2018-12-06T04:40:40.481Z,91.16
2018-12-06T04:43:48.080Z,89.98
2018-12-06T04:46:55.680Z,90.70
2018-12-06T04:50:13.279Z,90.84
2018-12-06T04:53:30.716Z,91.01
2018-12-06T04:56:48.170Z,90.35
2018-12-06T05:00:06.409Z,90.50
2018-12-06T05:03:13.905Z,90.45
2018-12-06T05:06:22.044Z,90.74
2018-12-06T05:09:29.604Z,90.85
2018-12-06T05:12:37.224Z,90.27
2018-12-06T05:15:44.710Z,90.27
2018-12-06T05:19:02.088Z,90.35
2018-12-06T05:22:19.545Z,90.56
2018-12-06T05:25:36.969Z,90.51
2018-12-06T05:28:54.395Z,90.36
2018-12-06T05:32:11.854Z,91.35
2018-12-06T05:35:29.235Z,91.05
2018-12-06T05:38:46.745Z,90.71
2018-12-06T05:42:04.161Z,89.71
2018-12-06T05:45:21.575Z,89.41
2018-12-06T05:48:38.950Z,89.97
2018-12-06T05:51:56.525Z,89.75
2018-12-06T05:55:13.836Z,89.70
2018-12-06T05:58:31.247Z,90.03
2018-12-06T06:01:48.763Z,89.91
2018-12-06T06:05:08.116Z,89.44
2018-12-06T06:08:16.340Z,89.65
2018-12-06T06:11:23.857Z,89.22
2018-12-06T06:14:41.190Z,88.88
2018-12-06T06:17:58.701Z,88.87
2018-12-06T06:21:16.157Z,88.96
2018-12-06T06:24:33.584Z,89.53
2018-12-06T06:27:51.049Z,89.65
2018-12-06T06:31:08.460Z,89.45
2018-12-06T06:34:25.936Z,89.59
2018-12-06T06:37:43.269Z,90.01
2018-12-06T06:41:00.737Z,89.62
2018-12-06T06:44:18.179Z,89.49
2018-12-06T06:47:35.637Z,88.99
2018-12-06T06:50:53.697Z,88.70
2018-12-06T06:54:01.217Z,88.81
2018-12-06T06:57:08.685Z,88.61
2018-12-06T07:00:16.215Z,88.59
2018-12-06T07:03:23.769Z,88.57
2018-12-06T07:06:41.381Z,89.26
2018-12-06T07:09:59.361Z,89.16
2018-12-06T07:13:07.351Z,88.16
2018-12-06T07:16:14.973Z,87.93
2018-12-06T07:19:22.453Z,88.17
2018-12-06T07:25:46.895Z,88.21
2018-12-06T07:29:04.559Z,88.98
2018-12-06T07:32:12.213Z,89.79
2018-12-06T07:35:19.725Z,89.52
2018-12-06T07:38:27.191Z,89.44
2018-12-06T07:44:50.400Z,89.01
2018-12-06T07:51:14.021Z,90.65
2018-12-06T07:54:31.321Z,89.82
2018-12-06T07:57:48.853Z,89.87
2018-12-06T08:01:06.282Z,88.96
2018-12-06T08:04:23.637Z,90.17
2018-12-06T08:07:43.143Z,89.96
2018-12-06T08:11:01.042Z,90.18
2018-12-06T08:14:08.519Z,90.58
2018-12-06T08:20:31.697Z,90.44
2018-12-06T08:23:49.101Z,90.81
2018-12-06T08:27:06.680Z,90.65
2018-12-06T08:30:24.022Z,91.09
2018-12-06T08:33:41.470Z,90.95
2018-12-06T08:36:58.932Z,91.18
2018-12-06T08:40:16.429Z,91.36
2018-12-06T08:43:35.005Z,90.83
2018-12-06T08:49:58.283Z,91.06
2018-12-06T08:53:15.706Z,90.79
2018-12-06T08:56:33.130Z,90.92
2018-12-06T08:59:50.606Z,90.61
2018-12-06T09:03:08.476Z,90.73
2018-12-06T09:06:25.925Z,90.33
2018-12-06T09:09:33.749Z,90.40
2018-12-06T09:15:57.004Z,90.07
2018-12-06T09:19:14.813Z,89.36
2018-12-06T09:22:24.411Z,89.35
2018-12-06T09:25:42.281Z,89.21
2018-12-06T09:28:59.709Z,89.27
2018-12-06T09:32:17.344Z,89.91
2018-12-06T09:35:24.849Z,90.02
2018-12-06T09:41:48.826Z,90.15
2018-12-06T09:45:08.520Z,89.59
2018-12-06T09:51:32.397Z,89.81
2018-12-06T09:54:39.893Z,90.62
2018-12-06T10:01:03.589Z,90.48
2018-12-06T10:04:21.061Z,89.97
2018-12-06T10:07:38.488Z,89.68
2018-12-06T10:10:56.529Z,89.60
2018-12-06T10:14:13.920Z,89.47
2018-12-06T10:17:31.772Z,89.56
2018-12-06T10:20:39.376Z,90.04
2018-12-06T10:27:02.650Z,90.59
2018-12-06T10:30:20.649Z,90.34
2018-12-06T10:33:28.156Z,90.13
2018-12-06T10:36:35.868Z,89.71
2018-12-06T10:39:43.373Z,89.77
2018-12-06T10:43:00.741Z,90.65
2018-12-06T10:46:21.476Z,90.89
2018-12-06T10:49:28.971Z,90.62
2018-12-06T10:55:52.207Z,90.98
2018-12-06T10:59:09.732Z,90.89
2018-12-06T11:02:30.800Z,90.42
2018-12-06T11:05:38.741Z,90.51
2018-12-06T11:12:02.269Z,90.61
2018-12-06T11:15:10.805Z,90.48
2018-12-06T11:18:30.377Z,90.33
2018-12-06T11:21:48.481Z,90.44
2018-12-06T11:24:56.285Z,90.25
2018-12-06T11:31:19.733Z,89.99
2018-12-06T11:34:37.178Z,90.05
2018-12-06T11:37:54.737Z,90.39
2018-12-06T11:41:02.561Z,90.18
2018-12-06T11:47:26.231Z,89.97
2018-12-06T11:50:33.928Z,90.24
2018-12-06T11:53:41.904Z,90.13
2018-12-06T11:56:59.685Z,90.19
2018-12-06T12:00:08.740Z,90.03
2018-12-06T12:03:16.448Z,90.65
2018-12-06T12:06:24.072Z,90.76
2018-12-06T12:09:42.277Z,90.93
2018-12-06T12:12:50.247Z,91.12
2018-12-06T12:16:08.024Z,91.04
2018-12-06T12:22:33.082Z,91.51
2018-12-06T12:25:50.699Z,91.81
2018-12-06T12:29:08.279Z,91.26
2018-12-06T12:32:16.083Z,91.59
2018-12-06T12:35:23.896Z,91.78
2018-12-06T12:38:41.845Z,92.14
2018-12-06T12:41:49.644Z,92.28
2018-12-06T12:44:57.221Z,91.90
2018-12-06T12:51:21.020Z,92.44
2018-12-06T12:57:44.622Z,92.88
2018-12-06T13:00:52.587Z,92.71
2018-12-06T13:07:16.542Z,92.34
2018-12-06T13:10:24.199Z,92.82
2018-12-06T13:13:32.004Z,92.87
2018-12-06T13:16:40.073Z,92.81
2018-12-06T13:19:48.149Z,92.77
2018-12-06T13:26:13.925Z,92.59
2018-12-06T13:32:39.087Z,92.73
2018-12-06T13:35:46.834Z,92.99
2018-12-06T13:42:10.237Z,92.95
2018-12-06T13:45:18.539Z,92.58
2018-12-06T13:51:42.223Z,92.89
2018-12-06T13:54:49.834Z,92.77
2018-12-06T14:01:13.561Z,92.59
2018-12-06T14:07:37.728Z,92.51
2018-12-06T14:10:45.350Z,93.04
2018-12-06T14:17:08.944Z,92.71
2018-12-06T14:20:16.706Z,92.75
2018-12-06T14:23:24.385Z,93.02
2018-12-06T14:26:32.014Z,93.27
2018-12-06T14:32:55.915Z,92.73
2018-12-06T14:36:13.818Z,93.50
2018-12-06T14:42:37.665Z,93.40
2018-12-06T14:45:46.018Z,93.26
2018-12-06T14:49:03.689Z,93.79
2018-12-06T14:52:11.405Z,93.51
2018-12-06T14:55:18.974Z,93.48
2018-12-06T15:01:42.505Z,93.46
2018-12-06T15:08:06.370Z,93.57
2018-12-06T15:11:14.205Z,93.62
2018-12-06T15:17:37.730Z,94.35
2018-12-06T15:20:45.545Z,94.15
2018-12-06T15:27:08.898Z,94.52
2018-12-06T15:30:26.538Z,93.67
2018-12-06T15:33:34.204Z,93.87
2018-12-06T15:36:41.719Z,93.87
2018-12-06T15:43:05.339Z,93.92
2018-12-06T15:46:12.832Z,93.81
2018-12-06T15:52:36.257Z,94.12
2018-12-06T15:55:53.729Z,94.50
2018-12-06T15:59:11.184Z,94.30
2018-12-06T16:02:28.763Z,94.03
2018-12-06T16:05:36.276Z,94.12
2018-12-06T16:11:59.540Z,94.25
2018-12-06T16:15:17.925Z,94.59
2018-12-06T16:21:41.761Z,94.31
2018-12-06T16:28:05.625Z,94.00
2018-12-06T16:31:13.314Z,93.87
2018-12-06T16:37:36.541Z,93.63
2018-12-06T16:40:54.114Z,93.99
2018-12-06T16:47:17.429Z,93.83
2018-12-06T16:50:34.989Z,93.62
2018-12-06T16:53:42.593Z,93.61
2018-12-06T16:56:50.329Z,93.29
2018-12-06T17:03:13.817Z,93.24
2018-12-06T17:06:34.938Z,92.83
2018-12-06T17:13:00.112Z,93.20
2018-12-06T17:16:08.118Z,92.97
2018-12-06T17:22:32.145Z,93.55
2018-12-06T17:25:39.810Z,93.15
2018-12-06T17:32:03.131Z,92.92
2018-12-06T17:35:20.584Z,92.94
2018-12-06T17:38:38.059Z,92.73
2018-12-06T17:41:55.598Z,92.73
2018-12-06T17:48:18.976Z,92.90
2018-12-06T17:51:36.469Z,93.19
2018-12-06T17:57:59.809Z,92.91
2018-12-06T18:01:17.476Z,92.60
2018-12-06T18:07:41.126Z,92.83
2018-12-06T18:10:49.059Z,93.31
2018-12-06T18:17:12.466Z,93.10
2018-12-06T18:20:20.120Z,93.09
2018-12-06T18:23:27.639Z,93.34
2018-12-06T18:26:35.189Z,92.73
2018-12-06T18:32:58.550Z,93.06
2018-12-06T18:36:06.337Z,93.26
2018-12-06T18:42:30.104Z,93.28
2018-12-06T18:48:53.321Z,93.60
2018-12-06T18:52:11.568Z,93.05
2018-12-06T18:58:36.893Z,92.99
2018-12-06T19:01:45.058Z,93.56
2018-12-06T19:05:02.649Z,93.01
2018-12-06T19:08:20.606Z,93.02
2018-12-06T19:11:38.964Z,92.50
2018-12-06T19:18:04.281Z,92.54
2018-12-06T19:21:12.103Z,92.71
2018-12-06T19:27:35.441Z,92.38
2018-12-06T19:30:52.806Z,92.42
2018-12-06T19:34:10.777Z,92.09
2018-12-06T19:37:28.259Z,92.31
2018-12-06T19:40:46.165Z,92.76
2018-12-06T19:44:03.658Z,92.20
2018-12-06T19:47:21.104Z,91.74
2018-12-06T19:50:38.488Z,91.08
2018-12-06T19:53:55.954Z,91.32
2018-12-06T19:57:13.464Z,90.68
2018-12-06T20:00:30.930Z,90.56
2018-12-06T20:03:49.080Z,90.78
2018-12-06T20:07:06.760Z,89.99
2018-12-06T20:10:24.203Z,90.56
2018-12-06T20:13:31.941Z,89.92
2018-12-06T20:16:39.429Z,90.37
2018-12-06T20:23:03.571Z,90.65
2018-12-06T20:26:21.064Z,90.49
2018-12-06T20:32:44.724Z,91.27
2018-12-06T20:39:08.706Z,91.71
2018-12-06T20:42:16.323Z,91.91
2018-12-06T20:48:40.624Z,92.10
2018-12-06T20:51:58.284Z,92.65
2018-12-06T20:58:26.398Z,92.08
2018-12-06T21:01:43.939Z,92.37
2018-12-06T21:08:07.287Z,92.54
2018-12-06T21:11:24.783Z,92.45
2018-12-06T21:14:42.300Z,93.02
2018-12-06T21:18:00.382Z,92.44
2018-12-06T21:21:07.920Z,92.30
2018-12-06T21:27:31.232Z,93.15
2018-12-06T21:30:49.637Z,93.18
2018-12-06T21:33:57.292Z,93.31
2018-12-06T21:37:14.917Z,93.36
2018-12-06T21:40:32.865Z,93.45
2018-12-06T21:43:40.404Z,93.48
2018-12-06T21:46:47.943Z,93.92
2018-12-06T21:53:12.179Z,93.89
2018-12-06T21:56:31.586Z,93.68
2018-12-06T21:59:49.126Z,93.42
2018-12-06T22:02:56.654Z,93.84
2018-12-06T22:09:20.853Z,94.89
2018-12-06T22:12:38.417Z,94.66
2018-12-06T22:15:55.782Z,94.65
2018-12-06T22:19:13.799Z,94.31
2018-12-06T22:22:21.761Z,94.97
2018-12-06T22:28:45.169Z,95.72
2018-12-06T22:32:02.717Z,95.87
2018-12-06T22:38:26.102Z,95.65
2018-12-06T22:41:43.576Z,95.97
2018-12-06T22:46:15.371Z,95.93
2018-12-06T22:52:39.371Z,95.89
2018-12-06T22:59:03.746Z,96.54
2018-12-06T23:02:11.604Z,96.45
2018-12-06T23:08:34.848Z,95.83
2018-12-06T23:11:52.436Z,96.19
2018-12-06T23:18:17.074Z,95.98
2018-12-06T23:21:24.713Z,96.35
2018-12-06T23:24:42.176Z,96.37
2018-12-06T23:27:59.719Z,96.63
2018-12-06T23:31:08.304Z,96.92
2018-12-06T23:34:26.420Z,97.13
2018-12-06T23:37:34.064Z,97.18
2018-12-06T23:43:57.364Z,96.80
2018-12-06T23:47:14.809Z,97.48
2018-12-06T23:50:32.718Z,96.70
2018-12-06T23:53:40.368Z,96.96
2018-12-06T23:56:48.125Z,96.82
